Time;durP1;ratioP1;P1;durP2;ratioP2;P2;SDS_P1;SDS_P2;PMS_P1;PMS_P2;Temp;Humidity;BMP_temperature;BMP_pressure;BME280_temperature;BME280_humidity;BME280_pressure;Samples;Min_cycle;Max_cycle;Signal;HPM_P1;HPM_P2
2021/01/22 00:02:10;;;;;;;3.17;2.00;;;;;;;15.70;47.11;98664.00;4881953;28;127218;-62
2021/01/22 00:04:36;;;;;;;3.55;2.30;;;;;;;15.73;47.41;98662.53;4900613;28;127224;-62
2021/01/22 00:07:03;;;;;;;3.78;2.38;;;;;;;15.77;47.20;98651.78;4890035;28;100446;-62
2021/01/22 00:09:29;;;;;;;2.33;1.92;;;;;;;15.75;47.35;98638.50;4900337;28;122164;-62
2021/01/22 00:11:55;;;;;;;3.30;2.08;;;;;;;15.81;47.40;98634.44;4897706;28;126539;-62
2021/01/22 00:14:21;;;;;;;2.50;1.92;;;;;;;15.76;47.32;98640.13;4898797;28;127161;-62
2021/01/22 00:16:47;;;;;;;2.47;2.10;;;;;;;15.81;47.22;98648.00;4882245;28;122551;-62
2021/01/22 00:19:13;;;;;;;2.80;1.92;;;;;;;15.78;47.36;98645.97;4882810;28;112136;-63
2021/01/22 00:21:39;;;;;;;2.47;2.10;;;;;;;15.78;47.15;98645.97;4914845;28;127261;-62
2021/01/22 00:24:06;;;;;;;2.30;1.70;;;;;;;15.78;47.44;98645.97;4918944;28;126902;-62
2021/01/22 00:26:32;;;;;;;2.30;1.88;;;;;;;15.77;47.36;98641.69;4897099;28;116239;-63
2021/01/22 00:28:58;;;;;;;2.63;2.00;;;;;;;15.81;47.51;98644.50;4900489;28;127323;-62
2021/01/22 00:31:24;;;;;;;2.60;1.90;;;;;;;15.77;47.31;98646.34;4900382;28;127928;-63
2021/01/22 00:33:50;;;;;;;2.65;1.80;;;;;;;15.81;47.63;98648.00;4899633;28;127935;-62
2021/01/22 00:36:16;;;;;;;2.13;1.90;;;;;;;15.82;47.53;98643.38;4900325;28;122590;-62
2021/01/22 00:38:42;;;;;;;2.58;1.88;;;;;;;15.83;47.52;98644.94;4898524;28;128273;-62
2021/01/22 00:41:08;;;;;;;3.17;1.90;;;;;;;15.82;47.67;98648.81;4913876;28;127327;-63
2021/01/22 00:43:34;;;;;;;2.63;1.95;;;;;;;15.83;47.41;98644.94;4900168;28;98479;-62
2021/01/22 00:46:00;;;;;;;2.30;1.40;;;;;;;15.83;47.13;98631.34;4899767;28;121439;-63
2021/01/22 00:48:26;;;;;;;2.47;1.85;;;;;;;15.83;47.52;98624.00;4899035;28;128059;-63
2021/01/22 00:50:52;;;;;;;3.15;2.00;;;;;;;15.83;47.26;98609.63;4917556;28;128138;-63
2021/01/22 00:53:18;;;;;;;2.50;1.73;;;;;;;15.86;47.60;98604.28;4901058;28;128013;-63
2021/01/22 00:55:44;;;;;;;2.70;1.52;;;;;;;15.85;47.45;98607.38;4904853;28;123198;-63
2021/01/22 00:58:10;;;;;;;2.50;1.80;;;;;;;15.84;47.39;98603.06;4922473;28;127651;-63
2021/01/22 01:00:36;;;;;;;2.55;1.67;;;;;;;15.87;47.17;98602.34;4923790;28;98645;-62
2021/01/22 01:03:02;;;;;;;3.08;1.70;;;;;;;15.83;47.16;98596.81;4922709;28;120063;-62
2021/01/22 01:05:28;;;;;;;2.67;1.70;;;;;;;15.90;46.81;98591.59;4923028;28;113317;-62
2021/01/22 01:07:54;;;;;;;2.70;1.60;;;;;;;15.85;46.68;98569.34;4922504;28;127897;-63
2021/01/22 01:10:20;;;;;;;2.40;1.50;;;;;;;15.88;47.00;98588.44;4920591;28;127491;-62
2021/01/22 01:12:47;;;;;;;2.42;1.70;;;;;;;15.87;47.14;98580.63;4921207;28;98084;-63
2021/01/22 01:15:13;;;;;;;2.80;1.70;;;;;;;15.87;46.84;98599.66;4924437;28;98035;-62
2021/01/22 01:17:40;;;;;;;2.63;1.70;;;;;;;15.85;46.67;98597.28;4922198;28;118251;-62
2021/01/22 01:20:07;;;;;;;2.25;1.70;;;;;;;15.86;46.57;98589.91;4922238;28;126912;-62
2021/01/22 01:22:33;;;;;;;2.92;2.17;;;;;;;15.81;46.52;98582.81;4914025;28;108759;-62
2021/01/22 01:25:00;;;;;;;2.53;2.03;;;;;;;15.85;46.58;98583.69;4903619;28;97711;-62
2021/01/22 01:27:26;;;;;;;2.72;1.92;;;;;;;15.86;46.99;98579.06;4902104;28;127967;-62
2021/01/22 01:29:52;;;;;;;4.15;1.77;;;;;;;15.83;46.72;98577.03;4902951;28;128609;-63
2021/01/22 01:32:18;;;;;;;3.55;2.33;;;;;;;15.86;46.78;98568.19;4905503;28;119157;-62
2021/01/22 01:34:44;;;;;;;2.42;2.00;;;;;;;15.89;46.92;98567.50;4904345;28;122489;-63
2021/01/22 01:37:10;;;;;;;2.40;2.10;;;;;;;15.86;46.58;98570.91;4904970;28;98611;-62
2021/01/22 01:39:36;;;;;;;3.42;2.35;;;;;;;15.86;46.95;98568.97;4922332;28;98725;-63
2021/01/22 01:42:02;;;;;;;2.67;2.33;;;;;;;15.87;46.88;98567.84;4921988;28;126542;-62
2021/01/22 01:44:28;;;;;;;3.30;2.67;;;;;;;15.88;46.76;98549.63;4922280;28;117762;-63
2021/01/22 01:46:55;;;;;;;3.60;2.58;;;;;;;15.89;46.77;98552.00;4921734;28;126876;-62
2021/01/22 01:49:21;;;;;;;3.15;2.42;;;;;;;15.87;46.64;98551.53;4921500;28;127925;-62
2021/01/22 01:51:47;;;;;;;4.38;2.50;;;;;;;15.85;46.90;98544.88;4899948;28;128085;-62
2021/01/22 01:54:13;;;;;;;3.75;2.83;;;;;;;15.85;46.01;98551.09;4901812;28;97925;-62
2021/01/22 01:56:39;;;;;;;3.70;2.75;;;;;;;15.87;46.72;98559.69;4899801;28;126802;-63
2021/01/22 01:59:05;;;;;;;3.88;2.85;;;;;;;15.85;46.43;98555.75;4900156;28;128116;-62
2021/01/22 02:01:31;;;;;;;4.05;2.85;;;;;;;15.86;46.55;98551.88;4915925;28;127491;-63
2021/01/22 02:03:57;;;;;;;4.30;2.97;;;;;;;15.85;46.52;98551.09;4901102;28;122678;-62
2021/01/22 02:06:23;;;;;;;3.63;2.83;;;;;;;15.84;46.39;98544.09;4901233;28;98493;-63
2021/01/22 02:08:49;;;;;;;4.82;3.13;;;;;;;15.85;46.30;98537.53;4901789;28;127135;-63
2021/01/22 02:11:15;;;;;;;3.78;2.92;;;;;;;15.83;46.04;98544.44;4916253;28;127808;-62
2021/01/22 02:13:41;;;;;;;4.43;3.25;;;;;;;15.85;46.02;98526.66;4885233;28;98505;-62
2021/01/22 02:16:08;;;;;;;4.40;3.30;;;;;;;15.87;46.24;98523.56;4919631;28;118624;-62
2021/01/22 02:18:34;;;;;;;5.22;3.50;;;;;;;15.82;45.77;98521.91;4900069;28;109150;-62
2021/01/22 02:21:21;;;;;;;3.97;3.30;;;;;;;15.81;46.01;98523.06;4916079;28;128618;-63
2021/01/22 02:23:47;;;;;;;4.78;3.47;;;;;;;15.85;45.83;98526.66;4915625;28;98253;-63
2021/01/22 02:26:21;;;;;;;5.13;3.40;;;;;;;15.86;46.19;98527.44;4900884;28;98212;-62
2021/01/22 02:28:49;;;;;;;4.25;3.20;;;;;;;15.85;45.97;98521.22;4920090;28;98550;-61
2021/01/22 02:31:15;;;;;;;4.93;3.70;;;;;;;15.87;46.05;98516.22;4883100;28;127117;-63
2021/01/22 02:33:42;;;;;;;5.00;3.55;;;;;;;15.83;45.70;98514.56;4900629;28;116183;-62
2021/01/22 02:36:08;;;;;;;4.97;3.63;;;;;;;15.81;45.72;98514.91;4916137;28;111471;-63
2021/01/22 02:38:35;;;;;;;5.03;3.70;;;;;;;15.82;45.41;98513.75;4899462;28;126973;-62
2021/01/22 02:41:01;;;;;;;4.50;3.75;;;;;;;15.81;45.60;98516.84;4900453;28;123574;-63
2021/01/22 02:43:27;;;;;;;5.13;3.65;;;;;;;15.82;45.57;98502.91;4883899;28;122196;-63
2021/01/22 02:45:53;;;;;;;4.75;3.75;;;;;;;15.78;45.81;98498.53;4902801;28;127011;-62
2021/01/22 02:48:19;;;;;;;5.20;3.70;;;;;;;15.82;46.07;98502.13;4882627;28;123084;-62
2021/01/22 02:50:47;;;;;;;4.57;3.80;;;;;;;15.81;45.72;98506.75;4900909;28;97803;-63
2021/01/22 02:53:13;;;;;;;4.38;3.70;;;;;;;15.83;46.08;98495.53;4902204;28;97962;-62
2021/01/22 02:55:39;;;;;;;4.05;3.50;;;;;;;15.80;46.03;98505.19;4902054;28;98937;-63
2021/01/22 02:58:23;;;;;;;4.80;3.50;;;;;;;15.75;45.98;98496.50;4916289;28;104020;-62
2021/01/22 03:00:51;;;;;;;5.78;3.80;;;;;;;15.74;45.90;98493.00;4915735;28;123721;-63
2021/01/22 03:04:09;;;;;;;5.20;3.40;;;;;;;15.71;45.81;98497.19;4916101;28;117707;-62
2021/01/22 03:06:40;;;;;;;4.45;3.70;;;;;;;15.69;46.01;98490.53;4903281;28;98230;-62
2021/01/22 03:09:07;;;;;;;4.70;3.80;;;;;;;15.67;45.43;98495.50;4883575;28;98441;-62
2021/01/22 03:11:33;;;;;;;4.72;3.88;;;;;;;15.64;45.25;98488.84;4900306;28;97989;-62
2021/01/22 03:13:59;;;;;;;5.30;3.92;;;;;;;15.62;45.16;98488.38;4867670;28;123127;-63
2021/01/22 03:16:26;;;;;;;5.35;4.07;;;;;;;15.61;45.55;98494.97;4903135;28;99565;-62
2021/01/22 03:19:02;;;;;;;5.20;4.30;;;;;;;15.56;45.29;98476.22;4919242;28;125970;-62
2021/01/22 03:21:29;;;;;;;5.70;3.80;;;;;;;15.56;44.82;98475.41;4920971;28;107858;-62
2021/01/22 03:23:55;;;;;;;4.80;3.60;;;;;;;15.56;45.07;98469.97;4921111;28;98115;-62
2021/01/22 03:26:21;;;;;;;5.55;4.43;;;;;;;15.57;44.65;98464.22;4919195;28;99224;-62
2021/01/22 03:28:47;;;;;;;4.68;4.13;;;;;;;15.54;44.90;98445.91;4902413;28;127246;-62
2021/01/22 03:31:13;;;;;;;5.00;3.95;;;;;;;15.54;44.56;98447.81;4921683;28;102358;-63
2021/01/22 03:33:39;;;;;;;5.57;4.20;;;;;;;15.57;44.77;98439.00;4903043;28;97752;-62
2021/01/22 03:36:06;;;;;;;5.43;4.40;;;;;;;15.57;44.37;98437.06;4919325;28;98336;-63
2021/01/22 03:38:33;;;;;;;5.63;4.13;;;;;;;15.65;44.65;98446.22;4902855;28;98743;-62
2021/01/22 03:41:02;;;;;;;5.57;4.30;;;;;;;15.63;44.59;98434.84;4921743;28;97832;-63
2021/01/22 03:43:28;;;;;;;6.38;4.45;;;;;;;15.66;44.68;98434.19;4908320;28;113361;-63
2021/01/22 03:45:54;;;;;;;5.63;4.28;;;;;;;15.62;44.00;98434.06;4899847;28;128324;-62
2021/01/22 03:48:20;;;;;;;4.63;4.03;;;;;;;15.58;44.19;98432.41;4899582;28;127864;-62
2021/01/22 03:50:46;;;;;;;6.97;4.57;;;;;;;15.65;43.35;98438.84;4914383;28;119557;-63
2021/01/22 03:53:12;;;;;;;5.35;4.50;;;;;;;15.59;43.58;98428.56;4919951;28;122125;-62
2021/01/22 03:55:38;;;;;;;5.32;4.70;;;;;;;15.62;43.56;98433.28;4903498;28;99366;-62
2021/01/22 03:58:04;;;;;;;5.70;4.40;;;;;;;15.61;43.59;98437.16;4919195;28;127476;-63
2021/01/22 04:00:30;;;;;;;5.05;4.18;;;;;;;15.59;43.76;98433.97;4919657;28;127252;-63
2021/01/22 04:02:57;;;;;;;4.85;4.35;;;;;;;15.57;43.62;98442.50;4918877;28;97868;-63
2021/01/22 04:05:24;;;;;;;4.60;4.15;;;;;;;15.57;43.77;98433.56;4898244;28;119082;-63
2021/01/22 04:07:50;;;;;;;4.80;4.00;;;;;;;15.55;43.83;98433.88;4898754;28;99803;-62
2021/01/22 04:10:16;;;;;;;5.40;4.38;;;;;;;15.52;44.04;98429.16;4900477;28;126649;-62
2021/01/22 04:12:45;;;;;;;5.55;4.57;;;;;;;15.51;43.83;98424.88;4883380;28;98274;-62
2021/01/22 04:15:12;;;;;;;6.65;4.10;;;;;;;15.49;44.27;98418.22;4898894;28;127413;-63
2021/01/22 04:17:38;;;;;;;5.28;4.22;;;;;;;15.49;43.50;98412.78;4900260;28;122628;-63
2021/01/22 04:20:05;;;;;;;5.40;4.60;;;;;;;15.44;43.82;98413.81;4902846;28;98971;-62
2021/01/22 04:22:31;;;;;;;5.55;4.40;;;;;;;15.45;43.85;98410.00;4926603;28;97853;-62
2021/01/22 04:24:57;;;;;;;5.25;4.45;;;;;;;15.41;43.40;98414.53;4925250;28;98803;-63
2021/01/22 04:27:23;;;;;;;5.63;4.32;;;;;;;15.42;43.56;98402.53;4925629;28;126323;-62
2021/01/22 04:29:49;;;;;;;5.57;4.43;;;;;;;15.43;43.19;98409.53;4926670;28;127547;-63
2021/01/22 04:32:16;;;;;;;5.57;4.53;;;;;;;15.41;43.48;98403.69;4925661;28;122814;-62
2021/01/22 04:34:42;;;;;;;5.72;4.05;;;;;;;15.44;43.49;98403.78;4925160;28;127594;-62
2021/01/22 04:37:08;;;;;;;5.78;4.10;;;;;;;15.43;43.63;98395.97;4925589;28;128472;-62
2021/01/22 04:39:35;;;;;;;4.80;3.90;;;;;;;15.42;44.18;98400.59;4925860;28;127642;-62
2021/01/22 04:42:02;;;;;;;5.47;4.30;;;;;;;15.39;43.66;98389.66;4926951;28;97989;-63
2021/01/22 04:44:28;;;;;;;6.10;3.97;;;;;;;15.38;43.64;98378.00;4925734;28;122570;-62
2021/01/22 04:46:54;;;;;;;5.95;4.18;;;;;;;15.36;43.87;98368.63;4902826;28;128074;-63
2021/01/22 04:49:20;;;;;;;5.45;4.43;;;;;;;15.35;43.73;98367.06;4905065;28;127804;-62
2021/01/22 04:51:49;;;;;;;5.97;4.30;;;;;;;15.31;43.75;98353.41;4905628;28;117354;-62
2021/01/22 04:54:37;;;;;;;4.85;3.67;;;;;;;15.34;43.95;98330.19;4921215;28;122776;-62
2021/01/22 04:57:06;;;;;;;5.40;4.03;;;;;;;15.33;43.99;98321.28;4904550;28;99048;-62
2021/01/22 04:59:49;;;;;;;4.53;3.95;;;;;;;15.35;43.74;98324.41;4907596;28;97879;-63
2021/01/22 05:02:16;;;;;;;5.63;4.20;;;;;;;15.36;43.84;98336.06;4904546;28;98909;-62
2021/01/22 05:04:42;;;;;;;5.10;4.10;;;;;;;15.35;43.90;98334.50;4907153;28;98700;-62
2021/01/22 05:07:11;;;;;;;4.65;4.13;;;;;;;15.32;43.25;98333.25;4906763;28;98513;-63
2021/01/22 05:09:38;;;;;;;5.45;3.90;;;;;;;15.33;43.31;98329.41;4907155;28;98575;-62
2021/01/22 05:12:05;;;;;;;4.75;3.90;;;;;;;15.30;43.28;98337.47;4906284;28;97882;-62
2021/01/22 05:14:33;;;;;;;4.65;3.75;;;;;;;15.31;43.67;98334.41;4913569;28;119320;-63
2021/01/22 05:17:08;;;;;;;5.05;3.72;;;;;;;15.31;43.95;98341.75;4925651;28;121747;-63
2021/01/22 05:19:35;;;;;;;3.90;3.33;;;;;;;15.33;43.76;98328.63;4926772;28;98369;-62
2021/01/22 05:22:02;;;;;;;4.57;3.67;;;;;;;15.31;43.87;98341.75;4926655;28;97944;-63
2021/01/22 05:24:29;;;;;;;4.43;3.55;;;;;;;15.30;43.70;98353.75;4927089;28;99083;-62
2021/01/22 05:27:10;;;;;;;4.78;3.60;;;;;;;15.27;43.03;98354.44;4908044;28;98581;-63
2021/01/22 05:29:37;;;;;;;4.85;3.63;;;;;;;15.27;43.18;98346.31;4925614;28;98003;-62
2021/01/22 05:32:24;;;;;;;4.97;3.58;;;;;;;15.25;43.23;98346.66;4924298;28;97992;-63
2021/01/22 05:34:50;;;;;;;4.43;3.60;;;;;;;15.25;43.23;98345.84;4910667;28;99391;-62
2021/01/22 05:37:17;;;;;;;5.15;3.70;;;;;;;15.18;42.95;98341.06;4922426;28;98414;-62
2021/01/22 05:39:43;;;;;;;4.13;3.50;;;;;;;15.22;43.25;98329.16;4923331;28;98302;-62
2021/01/22 05:42:10;;;;;;;5.13;4.03;;;;;;;15.18;43.06;98324.78;4917986;28;122681;-62
2021/01/22 05:44:36;;;;;;;4.15;3.22;;;;;;;15.17;43.20;98302.28;4901575;28;98752;-62
2021/01/22 05:47:09;;;;;;;5.25;3.75;;;;;;;15.15;43.09;98301.03;4902239;28;113140;-62
2021/01/22 05:49:58;;;;;;;4.80;3.70;;;;;;;15.12;42.65;98304.44;4903895;28;98291;-63
2021/01/22 05:52:24;;;;;;;4.63;3.75;;;;;;;15.11;42.93;98297.44;4903420;28;97937;-63
2021/01/22 05:54:51;;;;;;;6.00;4.10;;;;;;;15.07;42.31;98293.84;4903347;28;119457;-63
2021/01/22 05:57:17;;;;;;;6.20;4.03;;;;;;;15.10;42.49;98296.66;4902995;28;99573;-62
2021/01/22 05:59:43;;;;;;;3.78;3.30;;;;;;;15.09;42.88;98305.94;4903965;28;98248;-62
2021/01/22 06:02:28;;;;;;;4.03;3.47;;;;;;;15.04;42.83;98298.03;4902238;28;121578;-62
2021/01/22 06:05:15;;;;;;;4.88;3.85;;;;;;;15.03;42.35;98309.25;4903252;28;98762;-63
2021/01/22 06:07:43;;;;;;;5.32;4.07;;;;;;;14.97;42.42;98297.84;4902500;28;98870;-62
2021/01/22 06:10:20;;;;;;;5.07;3.92;;;;;;;14.94;42.32;98288.50;4901989;28;98278;-62
2021/01/22 06:12:51;;;;;;;4.53;4.07;;;;;;;14.89;42.58;98291.47;4922371;28;98819;-62
2021/01/22 06:15:22;;;;;;;4.85;4.15;;;;;;;14.93;42.12;98297.78;4922340;28;98390;-63
2021/01/22 06:17:53;;;;;;;5.93;4.40;;;;;;;14.92;42.28;98301.63;4921504;28;122269;-63
2021/01/22 06:20:21;;;;;;;5.53;4.43;;;;;;;14.89;42.70;98299.59;4921806;28;112121;-63
2021/01/22 06:23:11;;;;;;;5.43;4.07;;;;;;;14.87;42.88;98296.47;4903417;28;98295;-62
2021/01/22 06:25:46;;;;;;;4.80;4.25;;;;;;;14.89;42.71;98299.59;4900981;28;98519;-63
2021/01/22 06:28:12;;;;;;;4.85;4.00;;;;;;;14.87;42.95;98288.31;4915412;28;128429;-63
2021/01/22 06:30:40;;;;;;;6.03;4.43;;;;;;;14.86;42.53;98288.69;4900163;28;128046;-62
2021/01/22 06:33:06;;;;;;;4.97;4.25;;;;;;;14.88;42.73;98292.59;4902552;28;98152;-62
2021/01/22 06:35:34;;;;;;;5.10;4.07;;;;;;;14.88;43.10;98297.25;4907731;28;103970;-62
2021/01/22 06:38:01;;;;;;;5.20;3.83;;;;;;;14.89;43.44;98296.09;4899919;28;123297;-62
2021/01/22 06:40:27;;;;;;;4.80;4.03;;;;;;;14.89;43.32;98302.31;4919209;28;98055;-62
2021/01/22 06:42:54;;;;;;;4.75;3.83;;;;;;;14.86;43.63;98321.22;4903550;28;123054;-63
2021/01/22 06:45:21;;;;;;;4.93;4.35;;;;;;;14.85;43.31;98311.50;4922239;28;115284;-63
2021/01/22 06:48:06;;;;;;;5.80;4.50;;;;;;;14.81;43.93;98314.09;4919566;28;123407;-62
2021/01/22 06:50:33;;;;;;;4.82;4.10;;;;;;;14.87;43.72;98311.94;4920956;28;124640;-62
2021/01/22 06:53:13;;;;;;;4.68;4.15;;;;;;;14.83;43.62;98322.69;4921018;28;109320;-63
2021/01/22 06:56:05;;;;;;;5.10;4.00;;;;;;;14.83;43.69;98320.00;4922060;28;99201;-63
2021/01/22 06:58:31;;;;;;;4.95;4.22;;;;;;;14.80;43.83;98315.25;4920824;28;117966;-62
2021/01/22 07:01:05;;;;;;;5.75;4.15;;;;;;;14.84;44.31;98313.41;4921835;28;98193;-63
2021/01/22 07:03:37;;;;;;;4.97;3.95;;;;;;;14.89;43.88;98320.50;4922245;28;97743;-62
2021/01/22 07:06:04;;;;;;;4.97;3.90;;;;;;;14.87;44.43;98318.16;4921997;28;98573;-62
2021/01/22 07:08:58;;;;;;;5.47;4.25;;;;;;;14.85;44.24;98322.34;4918891;28;98506;-63
2021/01/22 07:11:25;;;;;;;5.40;4.00;;;;;;;14.90;44.29;98316.69;4920114;28;121916;-62
2021/01/22 07:13:52;;;;;;;5.65;4.32;;;;;;;14.92;44.12;98317.91;4920779;28;118801;-62
2021/01/22 07:16:18;;;;;;;5.30;4.18;;;;;;;14.95;44.00;98311.78;4919682;28;122042;-63
2021/01/22 07:18:52;;;;;;;6.22;4.38;;;;;;;14.98;44.37;98311.09;4920736;28;99327;-62
2021/01/22 07:21:37;;;;;;;6.22;4.30;;;;;;;14.97;44.35;98314.13;4910417;28;97867;-63
2021/01/22 07:24:05;;;;;;;4.30;3.78;;;;;;;15.02;44.17;98311.19;4915364;28;98073;-63
2021/01/22 07:26:40;;;;;;;5.03;4.50;;;;;;;15.02;44.29;98316.63;4902606;28;99131;-63
2021/01/22 07:29:27;;;;;;;4.93;4.18;;;;;;;15.16;44.29;98299.91;4901608;28;99005;-63
2021/01/22 07:31:57;;;;;;;5.30;4.13;;;;;;;15.20;44.34;98306.19;4900516;28;97921;-62
2021/01/22 07:34:43;;;;;;;6.43;4.22;;;;;;;15.30;44.07;98310.34;4902257;28;97986;-63
2021/01/22 07:37:17;;;;;;;5.28;4.00;;;;;;;15.33;43.86;98305.00;4906330;28;98268;-62
2021/01/22 07:39:44;;;;;;;5.32;3.92;;;;;;;15.47;43.77;98304.53;4921047;28;98397;-63
2021/01/22 07:42:15;;;;;;;5.03;3.90;;;;;;;15.54;44.31;98295.78;4903420;28;98401;-62
2021/01/22 07:44:43;;;;;;;4.93;3.73;;;;;;;15.61;44.35;98314.97;4921807;28;97846;-63
2021/01/22 07:47:09;;;;;;;4.65;3.85;;;;;;;15.69;44.03;98305.88;4920654;28;98565;-62
2021/01/22 07:49:50;;;;;;;4.55;3.78;;;;;;;15.86;44.24;98313.63;4919364;28;98283;-62
2021/01/22 07:52:16;;;;;;;5.53;3.60;;;;;;;16.03;44.01;98309.72;4903177;28;98299;-62
2021/01/22 07:54:42;;;;;;;4.80;3.58;;;;;;;16.20;43.94;98325.63;4902177;28;122252;-63
2021/01/22 07:57:16;;;;;;;3.67;3.35;;;;;;;16.33;43.82;98317.34;4901388;28;127776;-62
2021/01/22 07:59:43;;;;;;;5.57;3.30;;;;;;;16.50;43.59;98311.47;4897159;28;98652;-63
2021/01/22 08:02:23;;;;;;;4.07;3.40;;;;;;;16.75;43.73;98316.66;4889610;28;98178;-62
2021/01/22 08:05:00;;;;;;;3.92;3.40;;;;;;;16.83;43.80;98318.38;4903069;28;105236;-63
2021/01/22 08:07:31;;;;;;;4.47;3.50;;;;;;;17.09;43.71;98323.09;4921064;28;98491;-61
2021/01/22 08:09:57;;;;;;;3.70;3.25;;;;;;;17.05;44.13;98328.47;4920766;28;98450;-62
2021/01/22 08:12:23;;;;;;;3.90;3.08;;;;;;;17.05;44.52;98333.13;4920713;28;97936;-62
2021/01/22 08:14:50;;;;;;;4.53;3.47;;;;;;;17.09;44.93;98329.31;4915813;28;101884;-62
2021/01/22 08:17:16;;;;;;;3.92;3.00;;;;;;;17.34;44.59;98331.72;4900403;28;97908;-63
2021/01/22 08:19:43;;;;;;;3.33;2.88;;;;;;;17.93;43.95;98321.38;4899111;28;98595;-62
2021/01/22 08:22:13;;;;;;;4.72;3.30;;;;;;;18.47;43.56;98323.66;4898223;28;112561;-63
2021/01/22 08:24:48;;;;;;;3.97;3.10;;;;;;;18.71;43.76;98313.44;4899234;28;97699;-63
2021/01/22 08:27:14;;;;;;;3.15;2.80;;;;;;;18.99;43.71;98315.69;4914001;28;98868;-62
2021/01/22 08:29:40;;;;;;;3.78;2.92;;;;;;;19.09;43.29;98320.47;4915210;28;99803;-62
2021/01/22 08:32:08;;;;;;;4.15;2.90;;;;;;;19.42;43.24;98310.63;4899308;28;98317;-62
2021/01/22 08:34:34;;;;;;;3.88;3.00;;;;;;;19.34;44.11;98316.03;4908223;28;98003;-62
2021/01/22 08:37:00;;;;;;;4.38;2.60;;;;;;;19.42;45.40;98310.63;4895718;28;126825;-62
2021/01/22 08:39:26;;;;;;;2.92;2.63;;;;;;;19.50;45.55;98307.56;4901275;28;118343;-62
2021/01/22 08:41:52;;;;;;;3.38;2.65;;;;;;;19.62;45.86;98320.19;4918987;28;127953;-63
2021/01/22 08:44:18;;;;;;;4.63;2.72;;;;;;;19.85;45.86;98317.22;4920241;28;97952;-62
2021/01/22 08:46:49;;;;;;;3.40;2.50;;;;;;;20.15;45.28;98318.94;4916999;28;98892;-62
2021/01/22 08:49:15;;;;;;;3.15;2.53;;;;;;;20.53;45.68;98331.28;4891709;28;98725;-63
2021/01/22 08:51:41;;;;;;;4.50;2.72;;;;;;;20.60;46.19;98336.78;4900874;28;98240;-62
2021/01/22 08:54:08;;;;;;;3.30;2.58;;;;;;;20.69;46.28;98328.22;4898383;28;98197;-63
2021/01/22 08:56:34;;;;;;;3.28;2.53;;;;;;;20.46;46.96;98333.97;4900138;28;122394;-63
2021/01/22 08:59:12;;;;;;;3.92;2.45;;;;;;;20.33;47.92;98339.75;4881636;28;98397;-62
2021/01/22 09:01:54;;;;;;;3.65;2.75;;;;;;;20.07;48.58;98331.78;4902590;28;97950;-62
2021/01/22 09:04:25;;;;;;;3.03;2.53;;;;;;;20.41;48.01;98326.13;4895643;28;98244;-63
2021/01/22 09:07:02;;;;;;;4.30;2.80;;;;;;;20.57;47.66;98329.34;4896519;28;99101;-62
2021/01/22 09:09:45;;;;;;;3.78;2.53;;;;;;;20.76;47.66;98320.03;4885566;28;99080;-63
2021/01/22 09:12:19;;;;;;;2.70;2.33;;;;;;;20.90;47.79;98316.53;4895569;28;98108;-63
2021/01/22 09:14:49;;;;;;;3.50;2.28;;;;;;;20.92;47.98;98315.00;4902233;28;97985;-63
2021/01/22 09:17:38;;;;;;;3.28;2.22;;;;;;;21.08;48.39;98314.63;4902440;28;114812;-63
2021/01/22 09:20:07;;;;;;;2.70;2.38;;;;;;;21.29;48.23;98319.34;4903672;28;98385;-63
2021/01/22 09:22:34;;;;;;;3.42;2.20;;;;;;;21.41;48.56;98327.19;4895903;28;97940;-63
2021/01/22 09:25:01;;;;;;;3.22;2.28;;;;;;;21.34;49.14;98321.75;4908408;28;97999;-63
2021/01/22 09:27:28;;;;;;;3.33;2.30;;;;;;;21.20;49.72;98329.91;4917261;28;98672;-63
2021/01/22 09:29:54;;;;;;;2.63;2.08;;;;;;;21.33;49.56;98331.09;4912212;28;99207;-63
2021/01/22 09:32:20;;;;;;;3.33;2.33;;;;;;;21.31;49.98;98333.44;4911900;28;99226;-63
2021/01/22 09:34:46;;;;;;;4.72;2.38;;;;;;;21.26;50.12;98333.81;4919131;28;122693;-63
2021/01/22 09:37:12;;;;;;;2.67;2.17;;;;;;;21.14;50.49;98325.97;4917538;28;127708;-63
2021/01/22 09:39:38;;;;;;;3.33;2.40;;;;;;;21.02;50.95;98330.63;4918610;28;112719;-63
2021/01/22 09:42:05;;;;;;;2.83;1.90;;;;;;;20.89;51.16;98332.19;4920071;28;102069;-63
2021/01/22 09:44:31;;;;;;;2.45;1.73;;;;;;;20.74;51.51;98336.81;4917696;28;98504;-63
2021/01/22 09:46:58;;;;;;;2.90;2.00;;;;;;;20.69;51.61;98339.94;4920495;28;98860;-63
2021/01/22 09:49:24;;;;;;;3.35;1.50;;;;;;;20.71;51.41;98331.34;4916956;28;98494;-63
2021/01/22 09:51:50;;;;;;;2.15;1.63;;;;;;;20.75;51.09;98340.34;4920247;28;127219;-63
2021/01/22 09:54:16;;;;;;;2.30;1.60;;;;;;;20.82;51.32;98340.38;4915924;28;97903;-63
2021/01/22 09:56:42;;;;;;;2.08;1.50;;;;;;;20.88;50.85;98341.56;4921087;28;125852;-62
2021/01/22 09:59:08;;;;;;;2.80;1.35;;;;;;;20.99;50.87;98339.66;4903072;28;104630;-63
2021/01/22 10:01:35;;;;;;;4.50;1.42;;;;;;;21.09;50.89;98335.34;4922982;28;106081;-63
2021/01/22 10:04:02;;;;;;;3.20;1.52;;;;;;;21.22;50.94;98333.03;4914494;28;98034;-63
2021/01/22 10:06:28;;;;;;;2.83;1.45;;;;;;;21.26;50.87;98334.63;4920120;28;120868;-63
2021/01/22 10:08:54;;;;;;;2.60;1.45;;;;;;;21.33;51.23;98336.59;4894403;28;99284;-63
2021/01/22 10:11:20;;;;;;;2.22;1.17;;;;;;;21.35;51.10;98323.31;4900746;28;98267;-63
2021/01/22 10:13:53;;;;;;;2.50;1.40;;;;;;;21.37;51.28;98323.69;4915708;28;110145;-63
2021/01/22 10:16:22;;;;;;;2.97;1.40;;;;;;;21.39;51.34;98331.53;4905128;28;98220;-63
2021/01/22 10:18:50;;;;;;;2.55;1.40;;;;;;;21.37;51.08;98328.38;4895800;28;98024;-63
2021/01/22 10:21:17;;;;;;;1.95;1.40;;;;;;;21.28;51.35;98332.25;4903955;28;98156;-63
2021/01/22 10:23:45;;;;;;;1.92;1.25;;;;;;;21.20;51.35;98336.16;4913731;28;98131;-63
2021/01/22 10:26:11;;;;;;;2.83;1.23;;;;;;;21.04;51.70;98335.75;4922008;28;98102;-63
2021/01/22 10:28:37;;;;;;;2.30;1.20;;;;;;;20.87;51.95;98340.00;4919485;28;98200;-63
2021/01/22 10:31:03;;;;;;;2.55;1.13;;;;;;;20.65;52.40;98341.88;4886727;28;119157;-63
2021/01/22 10:33:29;;;;;;;1.85;1.10;;;;;;;20.46;52.51;98342.94;4912686;28;123652;-63
2021/01/22 10:35:55;;;;;;;2.05;1.00;;;;;;;20.23;52.90;98353.38;4920782;28;126410;-63
2021/01/22 10:38:21;;;;;;;2.63;1.13;;;;;;;19.98;52.89;98350.50;4902698;28;126771;-62
2021/01/22 10:40:47;;;;;;;1.77;0.90;;;;;;;19.80;53.07;98358.56;4887618;28;98226;-63
2021/01/22 10:43:13;;;;;;;2.15;0.90;;;;;;;19.68;53.22;98354.19;4912546;28;115139;-63
2021/01/22 10:45:39;;;;;;;2.65;0.90;;;;;;;19.58;52.71;98349.41;4903199;28;128440;-62
2021/01/22 10:48:06;;;;;;;1.98;0.90;;;;;;;19.56;52.66;98341.56;4901745;28;128659;-63
2021/01/22 10:50:32;;;;;;;2.40;0.90;;;;;;;19.69;51.95;98344.03;4920450;28;120841;-63
2021/01/22 10:52:58;;;;;;;1.35;0.60;;;;;;;19.78;51.41;98347.25;4913541;28;107117;-63
2021/01/22 10:55:24;;;;;;;1.73;0.80;;;;;;;19.71;51.33;98347.97;4922120;28;99232;-63
2021/01/22 10:57:50;;;;;;;1.77;0.70;;;;;;;19.75;51.36;98353.44;4920378;28;128861;-63
2021/01/22 11:00:17;;;;;;;2.13;0.57;;;;;;;19.70;51.42;98351.88;4920795;28;127599;-63
2021/01/22 11:02:46;;;;;;;1.73;0.60;;;;;;;19.70;51.24;98348.34;4913383;28;97881;-63
2021/01/22 11:05:13;;;;;;;1.35;0.50;;;;;;;19.65;50.68;98340.47;4913905;28;98712;-63
2021/01/22 11:07:39;;;;;;;1.92;0.50;;;;;;;19.67;50.35;98351.84;4911805;28;125206;-62
2021/01/22 11:10:06;;;;;;;1.48;0.50;;;;;;;19.67;50.08;98351.84;4920566;28;97903;-63
2021/01/22 11:12:32;;;;;;;1.45;0.40;;;;;;;19.69;50.09;98347.56;4914834;28;97921;-63
2021/01/22 11:14:58;;;;;;;1.92;0.50;;;;;;;19.66;50.11;98344.81;4919022;28;127914;-63
2021/01/22 11:17:24;;;;;;;1.52;0.40;;;;;;;19.59;50.38;98348.22;4914559;28;127901;-63
2021/01/22 11:19:50;;;;;;;1.17;0.40;;;;;;;19.48;50.51;98350.84;4919206;28;100201;-63
2021/01/22 11:22:16;;;;;;;1.00;0.30;;;;;;;19.40;51.03;98353.91;4917434;28;98019;-63
2021/01/22 11:24:42;;;;;;;1.30;0.30;;;;;;;19.37;50.64;98350.78;4900854;28;98353;-63
2021/01/22 11:27:08;;;;;;;1.40;0.30;;;;;;;19.38;50.59;98357.81;4917078;28;127557;-62
2021/01/22 11:29:34;;;;;;;1.00;0.20;;;;;;;19.38;50.30;98355.09;4916086;28;98626;-61
2021/01/22 11:32:00;;;;;;;1.55;0.30;;;;;;;19.34;50.29;98361.69;4918187;28;122425;-63
2021/01/22 11:34:26;;;;;;;1.42;0.30;;;;;;;19.33;50.34;98357.34;4915051;28;127870;-62
2021/01/22 11:36:52;;;;;;;1.55;0.20;;;;;;;19.26;50.45;98366.28;4919232;28;128149;-62